createdAt,value
2017-06-30T00:00:17.734Z,17.78
2017-06-30T00:00:58.322Z,17.76
2017-06-30T00:01:38.930Z,17.76
2017-06-30T00:02:19.521Z,17.74
2017-06-30T00:03:00.096Z,17.78
2017-06-30T00:03:40.687Z,17.74
2017-06-30T00:04:21.261Z,17.72
2017-06-30T00:05:01.859Z,17.78
2017-06-30T00:05:42.419Z,17.71
2017-06-30T00:06:22.982Z,17.74
2017-06-30T00:07:03.561Z,17.71
2017-06-30T00:07:44.165Z,17.72
2017-06-30T00:08:24.735Z,17.74
2017-06-30T00:09:05.328Z,17.74
2017-06-30T00:09:45.922Z,17.72
2017-06-30T00:10:26.503Z,17.7
2017-06-30T00:11:07.088Z,17.68
2017-06-30T00:11:47.667Z,17.68
2017-06-30T00:12:28.240Z,17.65
2017-06-30T00:13:08.947Z,17.72
2017-06-30T00:13:49.517Z,17.63
2017-06-30T00:14:30.092Z,17.78
2017-06-30T00:15:10.679Z,17.68
2017-06-30T00:15:51.270Z,17.71
2017-06-30T00:16:31.874Z,17.76
2017-06-30T00:17:12.447Z,17.74
2017-06-30T00:17:53.028Z,17.76
2017-06-30T00:18:33.592Z,17.64
2017-06-30T00:19:14.215Z,17.68
2017-06-30T00:19:54.784Z,17.7
2017-06-30T00:20:35.357Z,17.67
2017-06-30T00:21:15.931Z,17.64
2017-06-30T00:21:56.508Z,17.7
2017-06-30T00:22:37.128Z,17.72
2017-06-30T00:23:17.691Z,17.74
2017-06-30T00:23:58.290Z,17.78
2017-06-30T00:24:38.877Z,17.68
2017-06-30T00:25:19.480Z,17.67
2017-06-30T00:26:00.072Z,17.76
2017-06-30T00:26:40.661Z,17.72
2017-06-30T00:27:21.224Z,17.74
2017-06-30T00:28:01.801Z,17.67
2017-06-30T00:28:42.373Z,17.68
2017-06-30T00:29:22.969Z,17.68
2017-06-30T00:30:03.545Z,17.63
2017-06-30T00:30:44.112Z,17.57
2017-06-30T00:31:24.691Z,17.54
2017-06-30T00:32:05.278Z,17.6
2017-06-30T00:32:45.860Z,17.68
2017-06-30T00:33:26.437Z,17.63
2017-06-30T00:34:07.009Z,17.63
2017-06-30T00:34:47.581Z,17.68
2017-06-30T00:35:28.203Z,17.52
2017-06-30T00:36:08.786Z,17.64
2017-06-30T00:36:49.366Z,17.63
2017-06-30T00:37:29.928Z,17.59
2017-06-30T00:38:10.503Z,17.57
2017-06-30T00:38:51.073Z,17.52
2017-06-30T00:39:31.650Z,17.6
2017-06-30T00:40:12.232Z,17.57
2017-06-30T00:40:52.822Z,17.57
2017-06-30T00:41:33.402Z,17.6
2017-06-30T00:42:13.979Z,17.59
2017-06-30T00:42:54.564Z,17.68
2017-06-30T00:43:35.165Z,17.7
2017-06-30T00:44:15.778Z,17.76
2017-06-30T00:44:56.327Z,17.65
2017-06-30T00:45:36.889Z,17.71
2017-06-30T00:46:17.495Z,17.56
2017-06-30T00:46:58.082Z,17.64
2017-06-30T00:47:38.661Z,17.59
2017-06-30T00:48:19.225Z,17.72
2017-06-30T00:48:59.814Z,17.7
2017-06-30T00:49:40.386Z,17.59
2017-06-30T00:50:20.961Z,17.72
2017-06-30T00:51:01.536Z,17.74
2017-06-30T00:51:42.120Z,17.78
2017-06-30T00:52:22.695Z,17.78
2017-06-30T00:53:03.273Z,17.64
2017-06-30T00:53:43.848Z,17.65
2017-06-30T00:54:24.433Z,17.64
2017-06-30T00:55:05.013Z,17.68
2017-06-30T00:55:45.601Z,17.71
2017-06-30T00:56:26.188Z,17.7
2017-06-30T00:57:06.772Z,17.7
2017-06-30T00:57:47.345Z,17.71
2017-06-30T00:58:27.942Z,17.71
2017-06-30T00:59:08.519Z,17.57
2017-06-30T00:59:49.106Z,17.68
2017-06-30T01:00:29.680Z,17.64
2017-06-30T01:01:10.259Z,17.67
2017-06-30T01:01:50.834Z,17.72
2017-06-30T01:02:31.435Z,17.65
2017-06-30T01:03:12.029Z,17.67
2017-06-30T01:03:52.608Z,17.64
2017-06-30T01:04:33.162Z,17.6
2017-06-30T01:05:13.746Z,17.7
2017-06-30T01:05:54.342Z,17.59
2017-06-30T01:06:34.926Z,17.57
2017-06-30T01:07:15.543Z,17.59
2017-06-30T01:07:56.115Z,17.57
2017-06-30T01:08:36.683Z,17.59
2017-06-30T01:09:17.253Z,17.54
2017-06-30T01:09:57.861Z,17.54
2017-06-30T01:10:38.427Z,17.6
2017-06-30T01:11:19.014Z,17.64
2017-06-30T01:11:59.610Z,17.57
2017-06-30T01:12:40.186Z,17.63
2017-06-30T01:13:20.751Z,17.67
2017-06-30T01:14:01.348Z,17.64
2017-06-30T01:14:41.937Z,17.63
2017-06-30T01:15:22.500Z,17.57
2017-06-30T01:16:03.105Z,17.64
2017-06-30T01:16:43.682Z,17.64
2017-06-30T01:17:24.279Z,17.63
2017-06-30T01:18:04.853Z,17.57
2017-06-30T01:18:45.411Z,17.45
2017-06-30T01:19:25.989Z,17.46
2017-06-30T01:20:06.584Z,17.51
2017-06-30T01:20:47.146Z,17.48
2017-06-30T01:21:27.756Z,17.57
2017-06-30T01:22:08.357Z,17.42
2017-06-30T01:22:48.949Z,17.46
2017-06-30T01:23:29.538Z,17.57
2017-06-30T01:24:10.125Z,17.46
2017-06-30T01:24:50.714Z,17.45
2017-06-30T01:25:31.314Z,17.46
2017-06-30T01:26:11.948Z,17.39
2017-06-30T01:26:52.533Z,17.42
2017-06-30T01:27:33.109Z,17.41
2017-06-30T01:28:13.678Z,17.38
2017-06-30T01:28:54.258Z,17.42
2017-06-30T01:29:34.846Z,17.39
2017-06-30T01:30:15.421Z,17.36
2017-06-30T01:30:56.013Z,17.34
2017-06-30T01:31:36.624Z,17.38
2017-06-30T01:32:17.199Z,17.38
2017-06-30T01:32:57.769Z,17.36
2017-06-30T01:33:38.375Z,17.42
2017-06-30T01:34:18.935Z,17.33
2017-06-30T01:34:59.511Z,17.33
2017-06-30T01:35:40.123Z,17.41
2017-06-30T01:36:20.684Z,17.39
2017-06-30T01:37:01.272Z,17.31
2017-06-30T01:37:41.866Z,17.34
2017-06-30T01:38:22.449Z,17.34
2017-06-30T01:39:03.035Z,17.31
2017-06-30T01:39:43.619Z,17.33
2017-06-30T01:40:24.204Z,17.33
2017-06-30T01:41:04.786Z,17.3
2017-06-30T01:41:45.367Z,17.3
2017-06-30T01:42:25.961Z,17.39
2017-06-30T01:43:06.515Z,17.34
2017-06-30T01:43:47.083Z,17.34
2017-06-30T01:44:27.667Z,17.31
2017-06-30T01:45:08.264Z,17.26
2017-06-30T01:48:28.421Z,17.38
2017-06-30T01:49:08.992Z,17.31
2017-06-30T01:49:49.560Z,17.24
2017-06-30T01:50:30.168Z,17.38
2017-06-30T01:51:10.744Z,17.33
2017-06-30T01:51:51.316Z,17.27
2017-06-30T01:52:31.881Z,17.27
2017-06-30T01:53:12.449Z,17.27
2017-06-30T01:53:53.047Z,17.31
2017-06-30T01:54:33.632Z,17.31
2017-06-30T01:55:14.225Z,17.39
2017-06-30T01:55:54.806Z,17.41
2017-06-30T01:56:35.357Z,17.33
2017-06-30T01:57:15.946Z,17.38
2017-06-30T01:57:56.538Z,17.36
2017-06-30T01:58:37.097Z,17.41
2017-06-30T01:59:17.710Z,17.33
2017-06-30T01:59:58.257Z,17.29
2017-06-30T02:00:38.855Z,17.3
2017-06-30T02:01:19.420Z,17.33
2017-06-30T02:02:00.003Z,17.39
2017-06-30T02:02:40.568Z,17.38
2017-06-30T02:03:21.155Z,17.36
2017-06-30T02:04:01.727Z,17.38
2017-06-30T02:04:42.308Z,17.36
2017-06-30T02:05:22.897Z,17.31
2017-06-30T02:06:03.504Z,17.38
2017-06-30T02:06:44.113Z,17.38
2017-06-30T02:07:24.680Z,17.34
2017-06-30T02:08:05.247Z,17.33
2017-06-30T02:08:45.843Z,17.31
2017-06-30T02:09:26.424Z,17.31
2017-06-30T02:10:07.015Z,17.31
2017-06-30T02:10:47.593Z,17.39
2017-06-30T02:11:28.176Z,17.33
2017-06-30T02:12:08.763Z,17.38
2017-06-30T02:12:49.432Z,17.36
2017-06-30T02:13:30.008Z,17.34
2017-06-30T02:14:10.872Z,17.34
2017-06-30T02:14:51.375Z,17.38
2017-06-30T02:15:31.988Z,17.33
2017-06-30T02:16:12.591Z,17.34
2017-06-30T02:16:53.170Z,17.38
2017-06-30T02:17:33.741Z,17.41
2017-06-30T02:18:14.354Z,17.38
2017-06-30T02:18:54.933Z,17.38
2017-06-30T02:19:35.505Z,17.38
2017-06-30T02:20:16.121Z,17.34
2017-06-30T02:20:56.706Z,17.33
2017-06-30T02:21:37.302Z,17.34
2017-06-30T02:22:17.875Z,17.38
2017-06-30T02:22:58.464Z,17.44
2017-06-30T02:23:39.038Z,17.41
2017-06-30T02:24:19.616Z,17.39
2017-06-30T02:25:00.206Z,17.41
2017-06-30T02:25:40.770Z,17.45
2017-06-30T02:26:21.348Z,17.45
2017-06-30T02:27:01.942Z,17.45
2017-06-30T02:27:42.560Z,17.48
2017-06-30T02:28:23.127Z,17.44
2017-06-30T02:29:03.691Z,17.51
2017-06-30T02:29:44.266Z,17.44
2017-06-30T02:30:24.833Z,17.54
2017-06-30T02:31:05.411Z,17.49
2017-06-30T02:31:46.024Z,17.45
2017-06-30T02:32:26.594Z,17.45
2017-06-30T02:33:07.265Z,17.44
2017-06-30T02:33:47.860Z,17.45
2017-06-30T02:34:28.430Z,17.48
2017-06-30T02:35:09.003Z,17.44
2017-06-30T02:35:49.575Z,17.44
2017-06-30T02:36:30.137Z,17.44
2017-06-30T02:37:10.775Z,17.49
2017-06-30T02:37:51.375Z,17.42
2017-06-30T02:38:31.976Z,17.52
2017-06-30T02:39:12.557Z,17.44
2017-06-30T02:39:53.147Z,17.42
2017-06-30T02:40:33.727Z,17.51
2017-06-30T02:41:14.316Z,17.45
2017-06-30T02:41:54.888Z,17.44
2017-06-30T02:42:35.461Z,17.44
2017-06-30T02:43:16.016Z,17.45
2017-06-30T02:43:56.695Z,17.45
2017-06-30T02:44:37.266Z,17.44
2017-06-30T02:45:17.872Z,17.48
2017-06-30T02:45:58.440Z,17.41
2017-06-30T02:46:39.028Z,17.51
2017-06-30T02:47:19.608Z,17.46
2017-06-30T02:48:00.176Z,17.57
2017-06-30T02:48:40.748Z,17.6
2017-06-30T02:49:21.310Z,17.57
2017-06-30T02:50:01.881Z,17.6
2017-06-30T02:50:42.453Z,17.63
2017-06-30T02:51:23.016Z,17.57
2017-06-30T02:52:03.589Z,17.64
2017-06-30T02:52:44.187Z,17.56
2017-06-30T02:53:24.775Z,17.63
2017-06-30T02:54:05.350Z,17.56
2017-06-30T02:54:45.948Z,17.44
2017-06-30T02:55:26.516Z,17.46
2017-06-30T02:56:07.082Z,17.54
2017-06-30T02:56:47.651Z,17.42
2017-06-30T02:57:28.240Z,17.51
2017-06-30T02:58:08.812Z,17.45
2017-06-30T02:58:49.388Z,17.44
2017-06-30T02:59:29.963Z,17.51
2017-06-30T03:00:10.580Z,17.46
2017-06-30T03:00:51.142Z,17.44
2017-06-30T03:01:31.720Z,17.56
2017-06-30T03:02:12.288Z,17.49
2017-06-30T03:02:52.889Z,17.45
2017-06-30T03:03:33.425Z,17.48
2017-06-30T03:04:14.007Z,17.42
2017-06-30T03:04:54.596Z,17.44
2017-06-30T03:05:35.182Z,17.44
2017-06-30T03:06:15.759Z,17.56
2017-06-30T03:06:56.319Z,17.56
2017-06-30T03:07:36.909Z,17.51
2017-06-30T03:08:17.489Z,17.63
2017-06-30T03:08:58.065Z,17.63
2017-06-30T03:09:38.632Z,17.46
2017-06-30T03:10:19.205Z,17.48
2017-06-30T03:10:59.789Z,17.51
2017-06-30T03:11:40.388Z,17.52
2017-06-30T03:12:20.963Z,17.44
2017-06-30T03:13:01.559Z,17.48
2017-06-30T03:13:42.175Z,17.45
2017-06-30T03:14:22.794Z,17.63
2017-06-30T03:15:03.375Z,17.42
2017-06-30T03:15:43.994Z,17.59
2017-06-30T03:16:24.586Z,17.42
2017-06-30T03:17:05.183Z,17.49
2017-06-30T03:17:45.775Z,17.48
2017-06-30T03:18:26.342Z,17.48
2017-06-30T03:19:06.960Z,17.42
2017-06-30T03:19:47.525Z,17.46
2017-06-30T03:20:28.080Z,17.45
2017-06-30T03:21:08.665Z,17.44
2017-06-30T03:21:49.233Z,17.46
2017-06-30T03:22:29.812Z,17.48
2017-06-30T03:23:10.383Z,17.45
2017-06-30T03:23:51.021Z,17.45
2017-06-30T03:24:31.575Z,17.49
2017-06-30T03:25:12.158Z,17.46
2017-06-30T03:25:52.745Z,17.44
2017-06-30T03:26:33.328Z,17.46
2017-06-30T03:27:13.921Z,17.44
2017-06-30T03:27:54.502Z,17.46
2017-06-30T03:28:35.066Z,17.46
2017-06-30T03:29:15.684Z,17.48
2017-06-30T03:29:56.255Z,17.49
2017-06-30T03:30:36.856Z,17.44
2017-06-30T03:31:17.421Z,17.54
2017-06-30T03:31:57.986Z,17.51
2017-06-30T03:32:38.565Z,17.46
2017-06-30T03:33:19.142Z,17.46
2017-06-30T03:33:59.717Z,17.42
2017-06-30T03:34:40.286Z,17.41
2017-06-30T03:35:20.855Z,17.42
2017-06-30T03:36:01.438Z,17.36
2017-06-30T03:36:42.024Z,17.38
2017-06-30T03:37:22.607Z,17.39
2017-06-30T03:38:03.163Z,17.39
2017-06-30T03:38:43.734Z,17.39
2017-06-30T03:39:24.308Z,17.42
2017-06-30T03:40:04.873Z,17.45
2017-06-30T03:40:45.437Z,17.42
2017-06-30T03:41:26.021Z,17.39
2017-06-30T03:42:06.608Z,17.42
2017-06-30T03:42:47.177Z,17.42
2017-06-30T03:43:27.769Z,17.38
2017-06-30T03:44:08.342Z,17.39
2017-06-30T03:44:48.932Z,17.41
2017-06-30T03:45:29.502Z,17.38
2017-06-30T03:46:10.090Z,17.39
2017-06-30T03:46:50.667Z,17.44
2017-06-30T03:47:31.234Z,17.41
2017-06-30T03:48:11.813Z,17.36
2017-06-30T03:48:52.379Z,17.44
2017-06-30T03:49:32.968Z,17.41
2017-06-30T03:50:13.563Z,17.41
2017-06-30T03:50:54.119Z,17.36
2017-06-30T03:51:34.691Z,17.33
2017-06-30T03:52:15.342Z,17.31
2017-06-30T03:52:55.924Z,17.42
2017-06-30T03:53:36.510Z,17.31
2017-06-30T03:54:17.073Z,17.41
2017-06-30T03:54:57.647Z,17.39
2017-06-30T03:55:38.259Z,17.31
2017-06-30T03:56:18.887Z,17.34
2017-06-30T03:56:59.465Z,17.38
2017-06-30T03:57:40.037Z,17.38
2017-06-30T03:58:20.627Z,17.31
2017-06-30T03:59:01.230Z,17.38
2017-06-30T03:59:41.795Z,17.38
2017-06-30T04:00:22.354Z,17.34
2017-06-30T04:01:02.925Z,17.33
2017-06-30T04:01:43.544Z,17.39
2017-06-30T04:02:24.093Z,17.41
2017-06-30T04:03:04.702Z,17.39
2017-06-30T04:03:45.266Z,17.31
2017-06-30T04:04:25.848Z,17.34
2017-06-30T04:05:06.424Z,17.31
2017-06-30T04:05:47.003Z,17.39
2017-06-30T04:06:27.571Z,17.34
2017-06-30T04:07:08.144Z,17.33
2017-06-30T04:07:48.730Z,17.36
2017-06-30T04:08:29.353Z,17.38
2017-06-30T04:09:09.929Z,17.24
2017-06-30T04:09:50.509Z,17.36
2017-06-30T04:10:31.111Z,17.31
2017-06-30T04:11:11.677Z,17.33
2017-06-30T04:11:52.254Z,17.31
2017-06-30T04:12:32.871Z,17.31
2017-06-30T04:13:13.446Z,17.34
2017-06-30T04:13:54.043Z,17.24
2017-06-30T04:14:34.658Z,17.31
2017-06-30T04:15:15.186Z,17.26
2017-06-30T04:15:55.767Z,17.14
2017-06-30T04:16:36.368Z,17.19
2017-06-30T04:17:16.926Z,17.22
2017-06-30T04:17:57.492Z,17.22
2017-06-30T04:18:38.075Z,17.27
2017-06-30T04:19:18.675Z,17.26
2017-06-30T04:19:59.245Z,17.16
2017-06-30T04:20:39.813Z,17.31
2017-06-30T04:21:20.421Z,17.29
2017-06-30T04:22:00.981Z,17.16
2017-06-30T04:22:41.547Z,17.29
2017-06-30T04:23:22.120Z,17.26
2017-06-30T04:24:02.706Z,17.29
2017-06-30T04:24:43.285Z,17.22
2017-06-30T04:25:23.856Z,17.22
2017-06-30T04:26:04.429Z,17.29
2017-06-30T04:26:45.068Z,17.24
2017-06-30T04:27:25.619Z,17.2
2017-06-30T04:28:06.193Z,17.23
2017-06-30T04:28:46.765Z,17.2
2017-06-30T04:29:27.348Z,17.19
2017-06-30T04:30:07.922Z,17.29
2017-06-30T04:30:48.485Z,17.26
2017-06-30T04:31:29.053Z,17.19
2017-06-30T04:32:09.654Z,17.15
2017-06-30T04:32:50.233Z,17.16
2017-06-30T04:33:30.808Z,17.23
2017-06-30T04:34:11.401Z,17.16
2017-06-30T04:34:51.986Z,17.23
2017-06-30T04:35:32.569Z,17.24
2017-06-30T04:36:13.162Z,17.26
2017-06-30T04:36:53.743Z,17.26
2017-06-30T04:37:34.389Z,17.22
2017-06-30T04:38:14.965Z,17.3
2017-06-30T04:38:55.561Z,17.23
2017-06-30T04:39:36.228Z,17.2
2017-06-30T04:40:16.810Z,17.22
2017-06-30T04:40:57.393Z,17.22
2017-06-30T04:41:37.980Z,17.19
2017-06-30T04:42:18.564Z,17.26
2017-06-30T04:42:59.146Z,17.23
2017-06-30T04:43:39.720Z,17.22
2017-06-30T04:44:20.321Z,17.22
2017-06-30T04:45:00.915Z,17.2
2017-06-30T04:45:41.487Z,17.2
2017-06-30T04:46:22.068Z,17.26
2017-06-30T04:47:02.644Z,17.22
2017-06-30T04:47:43.218Z,17.16
2017-06-30T04:48:23.799Z,17.16
2017-06-30T04:49:04.378Z,17.2
2017-06-30T04:49:44.973Z,17.24
2017-06-30T04:50:25.547Z,17.2
2017-06-30T04:51:06.136Z,17.27
2017-06-30T04:51:46.733Z,17.27
2017-06-30T04:52:27.314Z,17.19
2017-06-30T04:53:07.894Z,17.2
2017-06-30T04:53:48.486Z,17.24
2017-06-30T04:54:29.092Z,17.23
2017-06-30T04:55:09.673Z,17.22
2017-06-30T04:55:50.270Z,17.16
2017-06-30T04:56:30.831Z,17.23
2017-06-30T04:57:11.462Z,17.22
2017-06-30T04:57:52.038Z,17.29
2017-06-30T04:58:32.598Z,17.29
2017-06-30T04:59:13.199Z,17.38
2017-06-30T04:59:53.786Z,17.3
2017-06-30T05:00:34.365Z,17.33
2017-06-30T05:01:14.966Z,17.31
2017-06-30T05:01:55.546Z,17.31
2017-06-30T05:02:36.132Z,17.33
2017-06-30T05:03:16.726Z,17.3
2017-06-30T05:03:57.335Z,17.33
2017-06-30T05:04:37.913Z,17.42
2017-06-30T05:05:18.498Z,17.33
2017-06-30T05:05:59.083Z,17.31
2017-06-30T05:06:39.684Z,17.42
2017-06-30T05:07:20.263Z,17.45
2017-06-30T05:08:00.844Z,17.46
2017-06-30T05:08:41.420Z,17.51
2017-06-30T05:09:21.983Z,17.48
2017-06-30T05:10:02.557Z,17.44
2017-06-30T05:10:43.165Z,17.49
2017-06-30T05:11:23.743Z,17.36
2017-06-30T05:12:04.329Z,17.41
2017-06-30T05:12:44.933Z,17.41
2017-06-30T05:13:25.513Z,17.49
2017-06-30T05:14:06.109Z,17.45
2017-06-30T05:14:46.684Z,17.52
2017-06-30T05:15:27.257Z,17.44
2017-06-30T05:16:07.884Z,17.48
2017-06-30T05:16:48.459Z,17.46
2017-06-30T05:17:29.048Z,17.48
2017-06-30T05:18:09.610Z,17.49
2017-06-30T05:18:50.192Z,17.49
2017-06-30T05:19:30.752Z,17.63
2017-06-30T05:20:11.336Z,17.56
2017-06-30T05:20:51.914Z,17.44
2017-06-30T05:21:32.482Z,17.46
2017-06-30T05:22:13.061Z,17.48
2017-06-30T05:22:53.635Z,17.52
2017-06-30T05:23:34.294Z,17.64
2017-06-30T05:24:14.873Z,17.59
2017-06-30T05:24:55.469Z,17.64
2017-06-30T05:25:36.042Z,17.65
2017-06-30T05:26:16.650Z,17.64
2017-06-30T05:26:57.210Z,17.68
2017-06-30T05:27:37.789Z,17.67
2017-06-30T05:28:18.388Z,17.57
2017-06-30T05:28:58.999Z,17.57
2017-06-30T05:29:39.565Z,17.51
2017-06-30T05:30:20.182Z,17.46
2017-06-30T05:31:00.761Z,17.59
2017-06-30T05:31:41.326Z,17.46
2017-06-30T05:32:21.896Z,17.46
2017-06-30T05:33:02.477Z,17.48
2017-06-30T05:33:43.050Z,17.49
2017-06-30T05:34:23.670Z,17.48
2017-06-30T05:35:04.241Z,17.44
2017-06-30T05:35:44.817Z,17.44
2017-06-30T05:36:25.433Z,17.49
2017-06-30T05:37:06.024Z,17.33
2017-06-30T05:37:46.613Z,17.39
2017-06-30T05:38:27.207Z,17.38
2017-06-30T05:39:07.777Z,17.38
2017-06-30T05:39:48.381Z,17.33
2017-06-30T05:40:28.957Z,17.34
2017-06-30T05:41:09.538Z,17.31
2017-06-30T05:41:50.154Z,17.34
2017-06-30T05:42:30.741Z,17.31
2017-06-30T05:43:11.345Z,17.38
2017-06-30T05:43:51.930Z,17.34
2017-06-30T05:44:32.497Z,17.36
2017-06-30T05:45:13.075Z,17.31
2017-06-30T05:45:53.647Z,17.38
2017-06-30T05:46:34.214Z,17.42
2017-06-30T05:47:14.788Z,17.44
2017-06-30T05:47:55.384Z,17.36
2017-06-30T05:48:35.932Z,17.36
2017-06-30T05:49:16.509Z,17.38
2017-06-30T05:49:57.090Z,17.41
2017-06-30T05:50:37.701Z,17.41
2017-06-30T05:51:18.305Z,17.31
2017-06-30T05:51:58.871Z,17.39
2017-06-30T05:52:39.456Z,17.42
2017-06-30T05:53:20.059Z,17.31
2017-06-30T05:54:00.945Z,17.33
2017-06-30T05:54:41.522Z,17.34
2017-06-30T05:55:22.109Z,17.39
2017-06-30T05:56:02.694Z,17.44
2017-06-30T05:56:43.263Z,17.44
2017-06-30T05:57:23.828Z,17.42
2017-06-30T05:58:04.428Z,17.45
2017-06-30T05:58:45.006Z,17.59
2017-06-30T05:59:25.618Z,17.48
2017-06-30T06:00:06.204Z,17.56
2017-06-30T06:00:46.788Z,17.64
2017-06-30T06:01:27.368Z,17.57
2017-06-30T06:02:07.961Z,17.59
2017-06-30T06:02:48.577Z,17.52
2017-06-30T06:03:29.162Z,17.59
2017-06-30T06:04:09.737Z,17.63
2017-06-30T06:04:50.320Z,17.59
2017-06-30T06:05:30.887Z,17.64
2017-06-30T06:06:11.453Z,17.6
2017-06-30T06:06:52.144Z,17.65
2017-06-30T06:07:32.731Z,17.54
2017-06-30T06:08:13.369Z,17.52
2017-06-30T06:08:53.933Z,17.6
2017-06-30T06:09:34.539Z,17.6
2017-06-30T06:10:15.144Z,17.63
2017-06-30T06:10:55.758Z,17.63
2017-06-30T06:11:36.331Z,17.46
2017-06-30T06:12:16.953Z,17.51
2017-06-30T06:12:57.560Z,17.44
2017-06-30T06:13:38.158Z,17.45
2017-06-30T06:14:18.724Z,17.45
2017-06-30T06:14:59.501Z,17.44
2017-06-30T06:15:40.072Z,17.49
2017-06-30T06:16:20.686Z,17.52
2017-06-30T06:17:01.438Z,17.51
2017-06-30T06:17:42.126Z,17.46
2017-06-30T06:18:22.797Z,17.49
2017-06-30T06:19:03.486Z,17.42
2017-06-30T06:19:44.106Z,17.51
2017-06-30T06:20:24.837Z,17.44
2017-06-30T06:21:05.407Z,17.38
2017-06-30T06:21:45.971Z,17.46
2017-06-30T06:22:26.579Z,17.39
2017-06-30T06:23:07.168Z,17.31
2017-06-30T06:23:47.750Z,17.39
2017-06-30T06:24:28.331Z,17.39
2017-06-30T06:25:08.903Z,17.38
2017-06-30T06:25:49.487Z,17.42
2017-06-30T06:26:30.055Z,17.44
2017-06-30T06:27:10.622Z,17.44
2017-06-30T06:27:51.190Z,17.41
2017-06-30T06:28:31.779Z,17.45
2017-06-30T06:29:12.374Z,17.39
2017-06-30T06:29:52.943Z,17.41
2017-06-30T06:30:33.559Z,17.41
2017-06-30T06:31:14.134Z,17.44
2017-06-30T06:31:54.725Z,17.42
2017-06-30T06:32:35.276Z,17.46
2017-06-30T06:33:15.849Z,17.44
2017-06-30T06:33:56.425Z,17.49
2017-06-30T06:34:37.040Z,17.45
2017-06-30T06:35:17.622Z,17.41
2017-06-30T06:35:58.206Z,17.44
2017-06-30T06:36:38.782Z,17.46
2017-06-30T06:37:19.372Z,17.45
2017-06-30T06:37:59.965Z,17.44
2017-06-30T06:38:40.529Z,17.44
2017-06-30T06:39:21.145Z,17.44
2017-06-30T06:40:01.784Z,17.49
2017-06-30T06:40:42.368Z,17.48
2017-06-30T06:41:22.956Z,17.48
2017-06-30T06:42:03.637Z,17.44
2017-06-30T06:42:44.156Z,17.49
2017-06-30T06:43:24.741Z,17.45
2017-06-30T06:44:05.310Z,17.45
2017-06-30T06:44:45.875Z,17.45
2017-06-30T06:45:26.529Z,17.49
2017-06-30T06:46:07.116Z,17.46
2017-06-30T06:46:47.712Z,17.42
2017-06-30T06:47:28.343Z,17.49
2017-06-30T06:48:08.909Z,17.41
2017-06-30T06:48:49.486Z,17.46
2017-06-30T06:49:30.072Z,17.41
2017-06-30T06:50:10.680Z,17.36
2017-06-30T06:50:51.260Z,17.41
2017-06-30T06:51:31.827Z,17.44
2017-06-30T06:52:12.391Z,17.42
2017-06-30T06:52:52.972Z,17.41
2017-06-30T06:53:33.534Z,17.41
2017-06-30T06:54:14.100Z,17.45
2017-06-30T06:54:54.711Z,17.44
2017-06-30T06:55:35.312Z,17.45
2017-06-30T06:56:15.980Z,17.48
2017-06-30T06:56:56.606Z,17.45
2017-06-30T06:57:37.192Z,17.46
2017-06-30T06:58:17.779Z,17.48
2017-06-30T06:58:58.374Z,17.46
2017-06-30T06:59:38.959Z,17.46
2017-06-30T07:00:19.535Z,17.45
2017-06-30T07:01:00.110Z,17.48
2017-06-30T07:01:41.211Z,17.51
2017-06-30T07:02:21.771Z,17.51
2017-06-30T07:03:02.377Z,17.49
2017-06-30T07:03:42.966Z,17.38
2017-06-30T07:04:23.992Z,17.39
2017-06-30T07:05:04.583Z,17.36
2017-06-30T07:05:45.154Z,17.38
2017-06-30T07:06:25.735Z,17.36
2017-06-30T07:07:06.303Z,17.36
2017-06-30T07:07:46.883Z,17.39
2017-06-30T07:08:27.470Z,17.41
2017-06-30T07:09:08.030Z,17.39
2017-06-30T07:09:48.599Z,17.39
2017-06-30T07:10:29.187Z,17.3
2017-06-30T07:11:09.835Z,17.34
2017-06-30T07:11:50.416Z,17.42
2017-06-30T07:12:30.993Z,17.36
2017-06-30T07:13:11.584Z,17.41
2017-06-30T07:13:52.196Z,17.45
2017-06-30T07:14:33.051Z,17.52
2017-06-30T07:15:13.619Z,17.46
2017-06-30T07:15:54.396Z,17.49
2017-06-30T07:16:34.995Z,17.44
2017-06-30T07:17:15.569Z,17.54
2017-06-30T07:17:56.150Z,17.44
2017-06-30T07:18:36.727Z,17.39
2017-06-30T07:19:17.289Z,17.34
2017-06-30T07:19:57.859Z,17.29
2017-06-30T07:20:38.429Z,17.31
2017-06-30T07:21:18.990Z,17.34
2017-06-30T07:21:59.572Z,17.31
2017-06-30T07:22:40.154Z,17.29
2017-06-30T07:23:21.399Z,17.16
2017-06-30T07:24:01.327Z,17.19
2017-06-30T07:24:41.924Z,17.19
2017-06-30T07:25:22.498Z,17.24
2017-06-30T07:26:03.087Z,17.26
2017-06-30T07:26:43.707Z,17.23
2017-06-30T07:27:24.285Z,17.16
2017-06-30T07:28:04.907Z,17.2
2017-06-30T07:28:45.499Z,17.24
2017-06-30T07:29:26.094Z,17.19
2017-06-30T07:30:06.699Z,17.16
2017-06-30T07:30:47.562Z,17.22
2017-06-30T07:31:28.149Z,17.2
2017-06-30T07:32:08.729Z,17.27
2017-06-30T07:32:49.315Z,17.22
2017-06-30T07:33:29.903Z,17.24
2017-06-30T07:34:10.487Z,17.24
2017-06-30T07:34:51.059Z,17.24
2017-06-30T07:35:31.643Z,17.22
2017-06-30T07:36:12.283Z,17.27
2017-06-30T07:36:52.868Z,17.2
2017-06-30T07:37:33.449Z,17.12
2017-06-30T07:38:14.027Z,17.23
2017-06-30T07:38:54.602Z,17.23
2017-06-30T07:39:35.153Z,17.19
2017-06-30T07:40:15.764Z,17.22
2017-06-30T07:40:56.331Z,17.23
2017-06-30T07:41:36.915Z,17.26
2017-06-30T07:42:17.480Z,17.23
2017-06-30T07:42:58.056Z,17.2
2017-06-30T07:43:38.650Z,17.19
2017-06-30T07:44:19.421Z,17.19
2017-06-30T07:45:00.193Z,17.16
2017-06-30T07:45:40.763Z,17.16
2017-06-30T07:46:21.332Z,17.27
2017-06-30T07:47:01.902Z,17.19
2017-06-30T07:47:42.490Z,17.2
2017-06-30T07:48:23.065Z,17.15
2017-06-30T07:49:03.661Z,17.2
2017-06-30T07:49:44.238Z,17.23
2017-06-30T07:50:24.806Z,17.27
2017-06-30T07:51:05.376Z,17.16
2017-06-30T07:51:45.946Z,17.2
2017-06-30T07:52:26.523Z,17.23
2017-06-30T07:53:07.106Z,17.22
2017-06-30T07:53:47.712Z,17.16
2017-06-30T07:54:28.278Z,17.24
2017-06-30T07:55:08.848Z,17.2
2017-06-30T07:55:49.439Z,17.23
2017-06-30T07:56:30.049Z,17.22
2017-06-30T07:57:10.630Z,17.19
2017-06-30T07:57:51.187Z,17.26
2017-06-30T07:58:31.778Z,17.19
2017-06-30T07:59:12.343Z,17.26
2017-06-30T07:59:52.916Z,17.23
2017-06-30T08:00:33.601Z,17.23
2017-06-30T08:01:14.227Z,17.22
2017-06-30T08:01:54.761Z,17.26
2017-06-30T08:02:35.350Z,17.26
2017-06-30T08:03:15.925Z,17.16
2017-06-30T08:03:56.516Z,17.11
2017-06-30T08:04:37.073Z,17.15
2017-06-30T08:05:17.657Z,17.12
2017-06-30T08:05:58.218Z,17.09
2017-06-30T08:06:38.801Z,17.04
2017-06-30T08:07:19.380Z,17.02
2017-06-30T08:08:00.004Z,17.04
2017-06-30T08:09:47.793Z,17.04
2017-06-30T08:10:28.389Z,16.97
2017-06-30T08:11:08.955Z,17.06
2017-06-30T08:11:49.519Z,17.04
2017-06-30T08:12:30.086Z,17.04
2017-06-30T08:13:10.685Z,17.08
2017-06-30T08:13:51.252Z,17.05
2017-06-30T08:14:31.819Z,17.04
2017-06-30T08:15:12.397Z,17.05
2017-06-30T08:15:53.000Z,17.04
2017-06-30T08:16:33.566Z,17.02
2017-06-30T08:17:14.126Z,17.16
2017-06-30T08:17:54.694Z,17.04
2017-06-30T08:18:35.297Z,17.11
2017-06-30T08:19:15.904Z,17.12
2017-06-30T08:19:56.493Z,17.23
2017-06-30T08:20:37.076Z,17.24
2017-06-30T08:21:17.656Z,17.23
2017-06-30T08:21:58.271Z,17.2
2017-06-30T08:22:38.837Z,17.22
2017-06-30T08:23:19.409Z,17.23
2017-06-30T08:23:59.997Z,17.2
2017-06-30T08:24:40.568Z,17.19
2017-06-30T08:25:21.141Z,17.3
2017-06-30T08:26:01.728Z,17.24
2017-06-30T08:26:42.305Z,17.29
2017-06-30T08:27:22.897Z,17.2
2017-06-30T08:28:03.469Z,17.26
2017-06-30T08:28:44.039Z,17.31
2017-06-30T08:29:24.647Z,17.24
2017-06-30T08:30:05.275Z,17.29
2017-06-30T08:30:45.816Z,17.34
2017-06-30T08:31:26.400Z,17.26
2017-06-30T08:32:07.030Z,17.31
2017-06-30T08:32:47.610Z,17.24
2017-06-30T08:33:28.266Z,17.3
2017-06-30T08:34:08.870Z,17.22
2017-06-30T08:34:49.527Z,17.23
2017-06-30T08:35:30.250Z,17.19
2017-06-30T08:36:10.877Z,17.22
2017-06-30T08:36:51.453Z,17.19
2017-06-30T08:37:32.052Z,17.19
2017-06-30T08:38:12.625Z,17.26
2017-06-30T08:38:53.209Z,17.27
2017-06-30T08:39:33.767Z,17.36
2017-06-30T08:40:14.390Z,17.3
2017-06-30T08:40:54.999Z,17.31
2017-06-30T08:41:35.559Z,17.39
2017-06-30T08:42:16.142Z,17.33
2017-06-30T08:42:56.709Z,17.34
2017-06-30T08:43:37.310Z,17.34
2017-06-30T08:44:17.885Z,17.31
2017-06-30T08:44:58.481Z,17.29
2017-06-30T08:45:39.052Z,17.38
2017-06-30T08:46:19.643Z,17.39
2017-06-30T08:47:00.334Z,17.31
2017-06-30T08:47:40.922Z,17.31